Terminal Aerodrome Forecast
Issued by NWS Blacksburg, VA

Current Version | Previous Version | Graphics & Text | Print | Product List | Glossary On
Versions: 1 2 3 4 5 6 7 8 9 10 11 12 13 14 15 16 17 18 19 20 21 22 23 24 25 26 27 28 29 30 31 32 33 34 35 36
000
FTUS41 KRNK 260315 AAC
TAFBLF
TAF AMD
KBLF 260315Z 2603/2624 05003KT 4SM BR BKN002 OVC022
      TEMPO 2604/2606 2SM TSRA BR SCT005 OVC012CB
     FM260600 23005KT 4SM -SHRA OVC020
     FM261200 30004KT P6SM BKN007 OVC012=

USA.gov is the U.S. government's official web portal to all federal, state and local government web resources and services.